Terminal Aerodrome Forecast
Issued by NWS

Home | Current Version | Previous Version | Text Only | Print | Product List | Glossary On
Versions: 1 2 3 4 5 6 7 8 9 10 11 12 13 14 15 16
901
FTUS43 KMQT 231724
TAFIWD
TAF
KIWD 231724Z 2318/2418 17010G18KT P6SM BKN045 OVC060
     FM232200 18009KT P6SM VCSH OVC035
     FM240100 18008KT 5SM -RA SCT015 OVC025
     FM240300 18007KT 2SM -RA OVC008
     FM240600 VRB04KT 2SM -RA OVC003
     FM241200 33005KT 2SM BR VCSH OVC003=

USA.gov is the U.S. government's official web portal to all federal, state and local government web resources and services.